KCHS/CHS METAR and TAF weather

Enter ICAO airport designator
Station Type Date Time Source
KCHS METAR 2020/09/20 06:56 UTC NOAA

KCHS 200656Z 02014G20KT 10SM OVC026 16/12 A3018 RMK AO2 SLP218 T01610117


Station Type Date Time Source
KCHS Decoded METAR 2020/09/20 06:56 UTC NOAA

CHARLESTON INT'L AIRPORT, SC, United States (KCHS) 32-54N 080-02W 13M
Sep 20, 2020 - 02:56 AM EDT / 2020.09.20 0656 UTC
Wind: from the NNE (020 degrees) at 16 MPH (14 KT) gusting to 23 MPH (20 KT):0
Visibility: 10 mile(s):0
Sky conditions: overcast
Temperature: 61.0 F (16.1 C)
Dew Point: 53.1 F (11.7 C)
Relative Humidity: 75%
Pressure (altimeter): 30.18 in. Hg (1022 hPa)
ob: KCHS 200656Z 02014G20KT 10SM OVC026 16/12 A3018 RMK AO2 SLP218 T01610117
cycle: 7

Station Type Date Time Source
KCHS TAF 2020/09/20 06:44 UTC NOAA

TAF KCHS 200520Z 2006/2106 03012G18KT P6SM FEW025 BKN150
TEMPO 2006/2007 BKN025
FM201400 03016G24KT P6SM SCT040 BKN250
FM202100 04014KT P6SM SKC

Example: see airport list